Perrysville, OH (44864)

8:53 PM EST on November 21, 2014 (GMT -0500)
Perrysville , Ohio | Change Station
CLOSE
Current Station
Personal Weather Station
Location: Perrysville, OH
Elevation: 965 ft
Nearby Weather Stations

Elev 965 ft 40.65 °N, 82.31 °W | Updated 2 minutes ago

Partly Cloudy
Partly Cloudy
13.5 °F
Feels Like 14 °F
N
0.0
Wind Variable Wind from SE
Gusts 2.2 mph

Today
High -- | Low -- °F
--% Chance of Precip.
Yesterday
High -- | Low -- °F
Precip. -- in
7:22 AM 5:07 PM
Waning Crescent, 0% visible
Pressure 30.49 in
Visibility 10.0 miles
Clouds Clear
Windchill 14 °F
Dew Point 13 °F
Humidity 99%
Rainfall 0.00 in
Snow Depth Not available.
UV 0 out of 12
Pollen .10 out of 12
Air Quality Not available.
Flu Activity Not available.
METAR KMFD 220052Z 16008KT 10SM CLR M07/M13 A3041 RMK AO2 SLP323 T10721128

More Conditions Fewer Conditions

Pressure 30.49 in
Visibility 10.0 miles
Clouds Clear
Windchill 14 °F
Dew Point 13 °F
Humidity 99%
Rainfall 0.00 in
Snow Depth Not available.
UV 0 out of 12
Pollen .10 out of 12
Air Quality Not available.
Flu Activity Not available.
METAR KMFD 220052Z 16008KT 10SM CLR M07/M13 A3041 RMK AO2 SLP323 T10721128

More Conditions Fewer Conditions

10-Day Weather Forecast

Almanac

Astronomy

Nov. 21, 2014 Rise Set
Actual Time
Civil Twilight
Nautical Twilight
Astronomical Twilight
Moon
Length of Visible Light
Length of Day
Tomorrow will be .
, % of the Moon is Illuminated

Today's Extremes

State Highs State Lows

Community

WunderPhotos

Upload Photos

1,772,750 photos uploaded!

WunderBlogs® & News

Nearby

Air Quality

  Air Quality AQ Index Pollutant
Not available.

Snow Depth

Station Depth Elevation

Earthquake Activity

City Distance Mag. Time & Date
Minimum magnitude displayed is 2.5.

Coastal Water Temperatures

Place Temperature

Nearby Weather Stations